KEUG/EUG METAR and TAF weather

Enter ICAO airport designator
Station Type Date Time Source
KEUG METAR 2021/01/27 12:54 UTC NOAA

KEUG 271254Z AUTO 19005KT 10SM FEW100 02/00 A2947 RMK AO2 SLP981 T00170000


Station Type Date Time Source
KEUG Decoded METAR 2021/01/27 12:54 UTC NOAA

MAHLON SWEET FIELD, OR, United States (KEUG) 44-08N 123-13W 114M
Jan 27, 2021 - 07:54 AM EST / 2021.01.27 1254 UTC
Wind: from the S (190 degrees) at 6 MPH (5 KT):0
Visibility: 10 mile(s):0
Sky conditions: mostly clear
Temperature: 35.1 F (1.7 C)
Dew Point: 32.0 F (0.0 C)
Relative Humidity: 88%
Pressure (altimeter): 29.47 in. Hg (997 hPa)
ob: KEUG 271254Z AUTO 19005KT 10SM FEW100 02/00 A2947 RMK AO2 SLP981 T00170000
cycle: 13

Station Type Date Time Source
KEUG TAF 2021/01/27 12:40 UTC NOAA

TAF KEUG 271138Z 2712/2812 17005KT P6SM SCT025 OVC045
TEMPO 2714/2718 BKN025
FM271800 14007KT P6SM -SHRA BKN025 OVC040
FM280300 17007KT P6SM VCSH OVC030

Example: see airport list